Soaring Guidance
Issued by NWS Reno, NV

Home | Current Version | Previous Version | Text Only | Print | Product List | Glossary On
Versions: 1 2 3 4 5 6 7 8 9 10 11 12 13 14
000
UXUS97 KREV 011346
SRGREV

SOARING FORECAST
NATIONAL WEATHER SERVICE - RENO NV
700 AM PDT WED APR 1 2015

THIS SOARING FORECAST IS FOR THE EASTERN SIERRA AND WESTERN NEVADA
WITH SPECIFIC INDICES FOR THE GREATER RENO AREA.

THIS FORECAST IS NOT UPDATED.

FOR CURRENT FLIGHT CONDITIONS...FORECASTS...AND ADVISORIES...ACCESS
YOUR LOCAL BRIEFING OUTLET OR FLIGHT SERVICE STATION.

*******************************************************************
LOCAL INDICES FOR RENO:                   TODAY     YESTERDAY
MAXIMUM TEMPERATURE AT RENO...(DEG F)...     56
TRIGGER TEMPERATURE...........(DEG F)...     42          61
   EXCEEDED YESTERDAY BY 17Z
MAXIMUM ALTITUDE..............(FT MSL)..  11500       11500
SOARING INDEX.................(FPM).....    405         555
FORECASTED K-INDEX.........VALID 18Z....     11           3
FORECASTED K-INDEX.........VALID 00Z....     12           7
FORECASTED LIFTED INDEX....VALID 18Z....      7           6
FORECASTED LIFTED INDEX....VALID 00Z....      1           5

AFTERNOON WINDS ALOFT FORECAST
MSL (FT) WIND/TEMP
9000  9900/-02
10000 9900/-05
12000 9900/-11
14000 9906/-16
16000 9914/-21
18000 2536/-26
24000 2567/-36
30000 2681/-47
34000 2676/-51
39000 2664/-52

SLIDE MOUNTAIN DATA:
 SLD HR 1250 M 18/15/2104/M  /SLIDE MTN UNOFFICIAL OBSERVATION

RENO TAF FORECAST:
KRNO 011124Z 0112/0212 VRB04KT P6SM FEW200
     FM011900 32012G20KT P6SM SCT120 BKN180
     FM020000 33010KT P6SM VCSH SCT060 BKN100

CARSON CITY TAF FORECAST:
KCXP 011124Z 0112/0212 34007KT P6SM SKC
     FM011700 06008KT P6SM FEW200
     FM012100 30012G20KT P6SM SCT120 BKN180
     FM020400 34010G16KT P6SM SCT070 BKN120

OUTLOOK FOR THE RENO-CARSON CITY-MINDEN AREA:
.THURSDAY...PARTLY CLOUDY IN THE MORNING THEN CLEARING. HIGHS
51 TO 56. NORTHEAST WINDS 10 TO 15 MPH. GUSTS UP TO 30 MPH IN THE
MORNING.

SUNRISE AND SUNSET
APRIL  1 2015.........SUNRISE   644 AM PDT   SUNSET   723 PM PDT
APRIL  2 2015.........SUNRISE   642 AM PDT   SUNSET   724 PM PDT



THIS PRODUCT IS ROUTINELY PREPARED BY 700 AM AND IS
DISTRIBUTED TO THE RENO FLIGHT SERVICE STATION AS WELL AS THE
NATIONAL WEATHER SERVICE WORLD WIDE WEB HOMEPAGE AT:
       HTTP://WWW.WEATHER.GOV/RENO





USA.gov is the U.S. government's official web portal to all federal, state and local government web resources and services.